sensor_id;sensor_type;location;lat;lon;timestamp;P1;durP1;ratioP1;P2;durP2;ratioP2
19219;SDS011;9744;49.364;7.484;2023-05-10T00:02:07;10.18;;;7.63;;
19219;SDS011;9744;49.364;7.484;2023-05-10T00:04:34;17.20;;;7.82;;
19219;SDS011;9744;49.364;7.484;2023-05-10T00:07:01;7.53;;;6.78;;
19219;SDS011;9744;49.364;7.484;2023-05-10T00:09:29;11.15;;;6.75;;
19219;SDS011;9744;49.364;7.484;2023-05-10T00:11:56;9.57;;;7.60;;
19219;SDS011;9744;49.364;7.484;2023-05-10T00:14:24;8.93;;;7.05;;
19219;SDS011;9744;49.364;7.484;2023-05-10T00:16:53;10.82;;;7.55;;
19219;SDS011;9744;49.364;7.484;2023-05-10T00:19:20;12.13;;;7.55;;
19219;SDS011;9744;49.364;7.484;2023-05-10T00:21:47;8.63;;;6.95;;
19219;SDS011;9744;49.364;7.484;2023-05-10T00:24:14;7.63;;;6.35;;
19219;SDS011;9744;49.364;7.484;2023-05-10T00:26:41;8.07;;;6.22;;
19219;SDS011;9744;49.364;7.484;2023-05-10T00:29:09;9.10;;;6.22;;
19219;SDS011;9744;49.364;7.484;2023-05-10T00:31:36;11.27;;;6.22;;
19219;SDS011;9744;49.364;7.484;2023-05-10T00:34:04;6.88;;;5.90;;
19219;SDS011;9744;49.364;7.484;2023-05-10T00:36:32;8.95;;;6.82;;
19219;SDS011;9744;49.364;7.484;2023-05-10T00:38:59;8.10;;;6.82;;
19219;SDS011;9744;49.364;7.484;2023-05-10T00:41:28;7.97;;;7.25;;
19219;SDS011;9744;49.364;7.484;2023-05-10T00:43:58;9.80;;;8.23;;
19219;SDS011;9744;49.364;7.484;2023-05-10T00:46:26;9.50;;;8.00;;
19219;SDS011;9744;49.364;7.484;2023-05-10T00:48:53;10.82;;;7.95;;
19219;SDS011;9744;49.364;7.484;2023-05-10T00:51:22;8.10;;;6.95;;
19219;SDS011;9744;49.364;7.484;2023-05-10T00:53:49;7.15;;;6.45;;
19219;SDS011;9744;49.364;7.484;2023-05-10T00:56:18;6.18;;;5.57;;
19219;SDS011;9744;49.364;7.484;2023-05-10T00:58:49;8.07;;;6.50;;
19219;SDS011;9744;49.364;7.484;2023-05-10T01:01:16;9.38;;;6.55;;
19219;SDS011;9744;49.364;7.484;2023-05-10T01:03:44;10.55;;;6.25;;
19219;SDS011;9744;49.364;7.484;2023-05-10T01:06:12;8.00;;;5.90;;
19219;SDS011;9744;49.364;7.484;2023-05-10T01:08:40;6.50;;;5.60;;
19219;SDS011;9744;49.364;7.484;2023-05-10T01:11:08;6.82;;;5.50;;
19219;SDS011;9744;49.364;7.484;2023-05-10T01:13:36;7.45;;;5.82;;
19219;SDS011;9744;49.364;7.484;2023-05-10T01:16:05;7.00;;;6.30;;
19219;SDS011;9744;49.364;7.484;2023-05-10T01:18:33;7.63;;;6.10;;
19219;SDS011;9744;49.364;7.484;2023-05-10T01:21:13;10.43;;;6.70;;
19219;SDS011;9744;49.364;7.484;2023-05-10T01:23:55;7.97;;;5.88;;
19219;SDS011;9744;49.364;7.484;2023-05-10T01:26:59;7.25;;;6.20;;
19219;SDS011;9744;49.364;7.484;2023-05-10T01:29:45;7.10;;;5.90;;
19219;SDS011;9744;49.364;7.484;2023-05-10T01:32:44;6.25;;;5.65;;
19219;SDS011;9744;49.364;7.484;2023-05-10T01:35:20;9.38;;;6.18;;
19219;SDS011;9744;49.364;7.484;2023-05-10T01:37:56;7.57;;;6.45;;
19219;SDS011;9744;49.364;7.484;2023-05-10T01:40:32;9.05;;;7.22;;
19219;SDS011;9744;49.364;7.484;2023-05-10T01:43:05;9.25;;;7.25;;
19219;SDS011;9744;49.364;7.484;2023-05-10T01:45:38;9.52;;;7.13;;
19219;SDS011;9744;49.364;7.484;2023-05-10T01:48:15;8.50;;;7.25;;
19219;SDS011;9744;49.364;7.484;2023-05-10T01:50:45;9.60;;;7.28;;
19219;SDS011;9744;49.364;7.484;2023-05-10T01:53:13;8.02;;;7.22;;
19219;SDS011;9744;49.364;7.484;2023-05-10T01:55:45;10.15;;;7.65;;
19219;SDS011;9744;49.364;7.484;2023-05-10T01:58:17;11.27;;;8.32;;
19219;SDS011;9744;49.364;7.484;2023-05-10T02:00:48;9.27;;;8.00;;
19219;SDS011;9744;49.364;7.484;2023-05-10T02:03:20;9.80;;;8.80;;
19219;SDS011;9744;49.364;7.484;2023-05-10T02:05:52;9.75;;;8.52;;
19219;SDS011;9744;49.364;7.484;2023-05-10T02:08:21;12.23;;;8.25;;
19219;SDS011;9744;49.364;7.484;2023-05-10T02:10:50;12.27;;;9.07;;
19219;SDS011;9744;49.364;7.484;2023-05-10T02:13:20;11.93;;;9.15;;
19219;SDS011;9744;49.364;7.484;2023-05-10T02:15:49;11.13;;;8.85;;
19219;SDS011;9744;49.364;7.484;2023-05-10T02:18:20;12.60;;;10.55;;
19219;SDS011;9744;49.364;7.484;2023-05-10T02:20:50;14.95;;;11.80;;
19219;SDS011;9744;49.364;7.484;2023-05-10T02:23:20;13.48;;;10.40;;
19219;SDS011;9744;49.364;7.484;2023-05-10T02:25:49;13.77;;;10.02;;
19219;SDS011;9744;49.364;7.484;2023-05-10T02:28:20;12.10;;;10.10;;
19219;SDS011;9744;49.364;7.484;2023-05-10T02:30:48;12.93;;;10.60;;
19219;SDS011;9744;49.364;7.484;2023-05-10T02:33:17;17.05;;;10.75;;
19219;SDS011;9744;49.364;7.484;2023-05-10T02:35:46;13.40;;;10.50;;
19219;SDS011;9744;49.364;7.484;2023-05-10T02:38:15;16.63;;;11.07;;
19219;SDS011;9744;49.364;7.484;2023-05-10T02:40:44;18.15;;;11.70;;
19219;SDS011;9744;49.364;7.484;2023-05-10T02:43:12;16.25;;;12.32;;
19219;SDS011;9744;49.364;7.484;2023-05-10T02:45:42;16.23;;;11.55;;
19219;SDS011;9744;49.364;7.484;2023-05-10T02:48:13;16.10;;;12.07;;
19219;SDS011;9744;49.364;7.484;2023-05-10T02:50:41;15.73;;;11.93;;
19219;SDS011;9744;49.364;7.484;2023-05-10T02:53:15;17.20;;;12.32;;
19219;SDS011;9744;49.364;7.484;2023-05-10T02:55:45;18.45;;;13.13;;
19219;SDS011;9744;49.364;7.484;2023-05-10T02:58:15;14.95;;;12.30;;
19219;SDS011;9744;49.364;7.484;2023-05-10T03:00:44;17.02;;;13.52;;
19219;SDS011;9744;49.364;7.484;2023-05-10T03:03:12;17.60;;;14.00;;
19219;SDS011;9744;49.364;7.484;2023-05-10T03:05:39;18.42;;;13.82;;
19219;SDS011;9744;49.364;7.484;2023-05-10T03:08:07;20.70;;;14.70;;
19219;SDS011;9744;49.364;7.484;2023-05-10T03:10:38;24.98;;;14.40;;
19219;SDS011;9744;49.364;7.484;2023-05-10T03:13:16;21.63;;;14.40;;
19219;SDS011;9744;49.364;7.484;2023-05-10T03:15:57;20.85;;;14.73;;
19219;SDS011;9744;49.364;7.484;2023-05-10T03:18:30;17.85;;;13.52;;
19219;SDS011;9744;49.364;7.484;2023-05-10T03:21:04;19.27;;;15.15;;
19219;SDS011;9744;49.364;7.484;2023-05-10T03:23:38;19.30;;;13.85;;
19219;SDS011;9744;49.364;7.484;2023-05-10T03:26:10;22.73;;;13.95;;
19219;SDS011;9744;49.364;7.484;2023-05-10T03:28:44;18.90;;;13.88;;
19219;SDS011;9744;49.364;7.484;2023-05-10T03:31:14;20.17;;;14.10;;
19219;SDS011;9744;49.364;7.484;2023-05-10T03:33:45;20.52;;;14.73;;
19219;SDS011;9744;49.364;7.484;2023-05-10T03:36:15;18.05;;;14.38;;
19219;SDS011;9744;49.364;7.484;2023-05-10T03:38:43;19.60;;;14.73;;
19219;SDS011;9744;49.364;7.484;2023-05-10T03:41:11;16.73;;;12.57;;
19219;SDS011;9744;49.364;7.484;2023-05-10T03:43:39;17.52;;;12.57;;
19219;SDS011;9744;49.364;7.484;2023-05-10T03:46:06;12.80;;;9.35;;
19219;SDS011;9744;49.364;7.484;2023-05-10T03:48:33;17.98;;;9.48;;
19219;SDS011;9744;49.364;7.484;2023-05-10T03:51:01;13.25;;;8.40;;
19219;SDS011;9744;49.364;7.484;2023-05-10T03:53:30;11.05;;;9.02;;
19219;SDS011;9744;49.364;7.484;2023-05-10T03:55:57;12.40;;;9.52;;
19219;SDS011;9744;49.364;7.484;2023-05-10T03:58:26;13.48;;;9.48;;
19219;SDS011;9744;49.364;7.484;2023-05-10T04:00:53;10.75;;;8.80;;
19219;SDS011;9744;49.364;7.484;2023-05-10T04:03:23;11.75;;;7.90;;
19219;SDS011;9744;49.364;7.484;2023-05-10T04:05:58;11.07;;;9.25;;
19219;SDS011;9744;49.364;7.484;2023-05-10T04:08:26;11.77;;;9.43;;
19219;SDS011;9744;49.364;7.484;2023-05-10T04:10:53;14.13;;;9.70;;
19219;SDS011;9744;49.364;7.484;2023-05-10T04:13:21;15.88;;;10.45;;
19219;SDS011;9744;49.364;7.484;2023-05-10T04:15:50;13.63;;;10.13;;
19219;SDS011;9744;49.364;7.484;2023-05-10T04:18:17;18.50;;;11.70;;
19219;SDS011;9744;49.364;7.484;2023-05-10T04:20:45;15.18;;;10.95;;
19219;SDS011;9744;49.364;7.484;2023-05-10T04:23:12;14.57;;;11.30;;
19219;SDS011;9744;49.364;7.484;2023-05-10T04:25:45;14.90;;;11.40;;
19219;SDS011;9744;49.364;7.484;2023-05-10T04:28:12;24.15;;;12.32;;
19219;SDS011;9744;49.364;7.484;2023-05-10T04:30:40;16.60;;;12.32;;
19219;SDS011;9744;49.364;7.484;2023-05-10T04:33:08;17.88;;;11.93;;
19219;SDS011;9744;49.364;7.484;2023-05-10T04:35:35;14.65;;;12.18;;
19219;SDS011;9744;49.364;7.484;2023-05-10T04:38:04;14.45;;;11.63;;
19219;SDS011;9744;49.364;7.484;2023-05-10T04:40:31;26.92;;;12.65;;
19219;SDS011;9744;49.364;7.484;2023-05-10T04:42:58;18.30;;;12.10;;
19219;SDS011;9744;49.364;7.484;2023-05-10T04:45:25;14.77;;;11.35;;
19219;SDS011;9744;49.364;7.484;2023-05-10T04:47:52;14.38;;;11.05;;
19219;SDS011;9744;49.364;7.484;2023-05-10T04:50:21;14.30;;;9.80;;
19219;SDS011;9744;49.364;7.484;2023-05-10T04:52:48;11.63;;;9.48;;
19219;SDS011;9744;49.364;7.484;2023-05-10T04:55:15;12.75;;;9.25;;
19219;SDS011;9744;49.364;7.484;2023-05-10T04:57:43;14.38;;;10.07;;
19219;SDS011;9744;49.364;7.484;2023-05-10T05:00:11;9.77;;;7.75;;
19219;SDS011;9744;49.364;7.484;2023-05-10T05:02:41;11.05;;;8.95;;
19219;SDS011;9744;49.364;7.484;2023-05-10T05:05:10;11.48;;;8.25;;
19219;SDS011;9744;49.364;7.484;2023-05-10T05:07:39;9.50;;;7.60;;
19219;SDS011;9744;49.364;7.484;2023-05-10T05:10:06;12.82;;;8.55;;
19219;SDS011;9744;49.364;7.484;2023-05-10T05:12:34;13.15;;;8.18;;
19219;SDS011;9744;49.364;7.484;2023-05-10T05:15:03;11.55;;;8.57;;
19219;SDS011;9744;49.364;7.484;2023-05-10T05:17:31;10.82;;;7.68;;
19219;SDS011;9744;49.364;7.484;2023-05-10T05:19:58;11.90;;;7.45;;
19219;SDS011;9744;49.364;7.484;2023-05-10T05:22:26;10.63;;;7.70;;
19219;SDS011;9744;49.364;7.484;2023-05-10T05:24:55;9.32;;;7.07;;
19219;SDS011;9744;49.364;7.484;2023-05-10T05:27:23;14.70;;;8.48;;
19219;SDS011;9744;49.364;7.484;2023-05-10T05:29:53;8.32;;;6.25;;
19219;SDS011;9744;49.364;7.484;2023-05-10T05:32:20;8.15;;;7.32;;
19219;SDS011;9744;49.364;7.484;2023-05-10T05:34:49;11.10;;;6.55;;
19219;SDS011;9744;49.364;7.484;2023-05-10T05:37:17;9.02;;;6.47;;
19219;SDS011;9744;49.364;7.484;2023-05-10T05:39:45;9.18;;;6.07;;
19219;SDS011;9744;49.364;7.484;2023-05-10T05:42:13;7.30;;;5.95;;
19219;SDS011;9744;49.364;7.484;2023-05-10T05:44:41;7.15;;;5.93;;
19219;SDS011;9744;49.364;7.484;2023-05-10T05:47:09;12.95;;;6.30;;
19219;SDS011;9744;49.364;7.484;2023-05-10T05:49:37;8.38;;;6.35;;
19219;SDS011;9744;49.364;7.484;2023-05-10T05:52:04;12.32;;;6.53;;
19219;SDS011;9744;49.364;7.484;2023-05-10T05:54:32;10.55;;;6.38;;
19219;SDS011;9744;49.364;7.484;2023-05-10T05:56:59;8.48;;;6.15;;
19219;SDS011;9744;49.364;7.484;2023-05-10T05:59:28;9.20;;;6.20;;
19219;SDS011;9744;49.364;7.484;2023-05-10T06:01:57;7.57;;;6.15;;
19219;SDS011;9744;49.364;7.484;2023-05-10T06:04:28;9.02;;;6.72;;
19219;SDS011;9744;49.364;7.484;2023-05-10T06:06:55;10.30;;;7.00;;
19219;SDS011;9744;49.364;7.484;2023-05-10T06:09:26;16.55;;;7.30;;
19219;SDS011;9744;49.364;7.484;2023-05-10T06:11:53;8.35;;;6.50;;
19219;SDS011;9744;49.364;7.484;2023-05-10T06:14:20;7.88;;;6.20;;
19219;SDS011;9744;49.364;7.484;2023-05-10T06:16:49;6.45;;;5.85;;
19219;SDS011;9744;49.364;7.484;2023-05-10T06:19:16;6.80;;;4.88;;
19219;SDS011;9744;49.364;7.484;2023-05-10T06:21:43;10.52;;;5.68;;
19219;SDS011;9744;49.364;7.484;2023-05-10T06:24:11;7.93;;;5.55;;
19219;SDS011;9744;49.364;7.484;2023-05-10T06:26:38;7.65;;;5.50;;
19219;SDS011;9744;49.364;7.484;2023-05-10T06:29:05;12.05;;;5.88;;
19219;SDS011;9744;49.364;7.484;2023-05-10T06:31:33;9.25;;;6.05;;
19219;SDS011;9744;49.364;7.484;2023-05-10T06:34:03;10.52;;;5.45;;
19219;SDS011;9744;49.364;7.484;2023-05-10T06:36:33;6.00;;;5.15;;
19219;SDS011;9744;49.364;7.484;2023-05-10T06:39:00;7.78;;;4.57;;
19219;SDS011;9744;49.364;7.484;2023-05-10T06:41:28;6.63;;;5.00;;
19219;SDS011;9744;49.364;7.484;2023-05-10T06:43:55;9.65;;;5.07;;
19219;SDS011;9744;49.364;7.484;2023-05-10T06:46:23;7.28;;;4.72;;
19219;SDS011;9744;49.364;7.484;2023-05-10T06:48:51;7.32;;;4.50;;
19219;SDS011;9744;49.364;7.484;2023-05-10T06:51:19;5.22;;;4.10;;
19219;SDS011;9744;49.364;7.484;2023-05-10T06:53:47;5.85;;;4.63;;
19219;SDS011;9744;49.364;7.484;2023-05-10T06:56:15;5.13;;;4.63;;
19219;SDS011;9744;49.364;7.484;2023-05-10T06:58:42;6.90;;;5.20;;
19219;SDS011;9744;49.364;7.484;2023-05-10T07:01:09;8.00;;;4.18;;
19219;SDS011;9744;49.364;7.484;2023-05-10T07:03:39;5.65;;;4.20;;
19219;SDS011;9744;49.364;7.484;2023-05-10T07:06:07;6.28;;;3.72;;
19219;SDS011;9744;49.364;7.484;2023-05-10T07:08:37;6.93;;;3.67;;
19219;SDS011;9744;49.364;7.484;2023-05-10T07:11:05;5.45;;;4.00;;
19219;SDS011;9744;49.364;7.484;2023-05-10T07:13:33;3.92;;;2.75;;
19219;SDS011;9744;49.364;7.484;2023-05-10T07:16:01;7.28;;;3.13;;
19219;SDS011;9744;49.364;7.484;2023-05-10T07:18:29;6.65;;;3.40;;
19219;SDS011;9744;49.364;7.484;2023-05-10T07:20:56;6.40;;;3.65;;
19219;SDS011;9744;49.364;7.484;2023-05-10T07:23:24;10.07;;;3.13;;
19219;SDS011;9744;49.364;7.484;2023-05-10T07:25:53;3.90;;;2.85;;
19219;SDS011;9744;49.364;7.484;2023-05-10T07:28:21;4.50;;;2.10;;
19219;SDS011;9744;49.364;7.484;2023-05-10T07:30:49;3.38;;;2.25;;
19219;SDS011;9744;49.364;7.484;2023-05-10T07:33:16;2.30;;;2.10;;
19219;SDS011;9744;49.364;7.484;2023-05-10T07:35:44;2.13;;;1.80;;
19219;SDS011;9744;49.364;7.484;2023-05-10T07:38:11;3.65;;;1.95;;
19219;SDS011;9744;49.364;7.484;2023-05-10T07:43:39;2.65;;;1.80;;
19219;SDS011;9744;49.364;7.484;2023-05-10T07:46:07;5.68;;;1.90;;
19219;SDS011;9744;49.364;7.484;2023-05-10T07:48:36;4.50;;;2.20;;
19219;SDS011;9744;49.364;7.484;2023-05-10T07:51:03;7.97;;;2.40;;
19219;SDS011;9744;49.364;7.484;2023-05-10T07:53:31;2.45;;;2.25;;
19219;SDS011;9744;49.364;7.484;2023-05-10T07:55:58;3.20;;;2.90;;
19219;SDS011;9744;49.364;7.484;2023-05-10T07:58:27;5.05;;;2.30;;
19219;SDS011;9744;49.364;7.484;2023-05-10T08:00:54;3.13;;;2.92;;
19219;SDS011;9744;49.364;7.484;2023-05-10T08:03:22;2.20;;;2.00;;
19219;SDS011;9744;49.364;7.484;2023-05-10T08:05:49;6.45;;;1.92;;
19219;SDS011;9744;49.364;7.484;2023-05-10T08:08:16;3.45;;;1.92;;
19219;SDS011;9744;49.364;7.484;2023-05-10T08:10:43;3.75;;;1.90;;
19219;SDS011;9744;49.364;7.484;2023-05-10T08:13:11;2.90;;;1.88;;
19219;SDS011;9744;49.364;7.484;2023-05-10T08:15:39;6.82;;;2.25;;
19219;SDS011;9744;49.364;7.484;2023-05-10T08:18:06;4.40;;;1.92;;
19219;SDS011;9744;49.364;7.484;2023-05-10T08:20:33;3.50;;;1.58;;
19219;SDS011;9744;49.364;7.484;2023-05-10T08:23:01;5.85;;;2.13;;
19219;SDS011;9744;49.364;7.484;2023-05-10T08:25:28;4.45;;;1.10;;
19219;SDS011;9744;49.364;7.484;2023-05-10T08:27:55;2.40;;;1.23;;
19219;SDS011;9744;49.364;7.484;2023-05-10T08:30:22;1.45;;;1.25;;
19219;SDS011;9744;49.364;7.484;2023-05-10T08:32:51;3.58;;;1.55;;
19219;SDS011;9744;49.364;7.484;2023-05-10T08:35:18;1.67;;;1.40;;
19219;SDS011;9744;49.364;7.484;2023-05-10T08:37:48;1.60;;;1.20;;
19219;SDS011;9744;49.364;7.484;2023-05-10T08:40:17;5.03;;;1.27;;
19219;SDS011;9744;49.364;7.484;2023-05-10T08:42:47;3.83;;;1.40;;
19219;SDS011;9744;49.364;7.484;2023-05-10T08:45:20;2.78;;;1.90;;
19219;SDS011;9744;49.364;7.484;2023-05-10T08:47:49;2.67;;;1.42;;
19219;SDS011;9744;49.364;7.484;2023-05-10T08:50:19;2.70;;;1.30;;
19219;SDS011;9744;49.364;7.484;2023-05-10T08:52:48;6.03;;;1.40;;
19219;SDS011;9744;49.364;7.484;2023-05-10T08:55:18;1.80;;;1.40;;
19219;SDS011;9744;49.364;7.484;2023-05-10T08:57:46;1.75;;;1.40;;
19219;SDS011;9744;49.364;7.484;2023-05-10T09:00:13;2.80;;;1.50;;
19219;SDS011;9744;49.364;7.484;2023-05-10T09:02:41;2.70;;;1.40;;
19219;SDS011;9744;49.364;7.484;2023-05-10T09:05:12;4.88;;;1.02;;
19219;SDS011;9744;49.364;7.484;2023-05-10T09:07:43;4.13;;;1.38;;
19219;SDS011;9744;49.364;7.484;2023-05-10T09:10:11;2.80;;;1.48;;
19219;SDS011;9744;49.364;7.484;2023-05-10T09:12:42;2.40;;;1.10;;
19219;SDS011;9744;49.364;7.484;2023-05-10T09:15:10;3.25;;;1.23;;
19219;SDS011;9744;49.364;7.484;2023-05-10T09:17:39;3.65;;;1.40;;
19219;SDS011;9744;49.364;7.484;2023-05-10T09:20:07;4.43;;;1.30;;
19219;SDS011;9744;49.364;7.484;2023-05-10T09:22:36;3.15;;;1.20;;
19219;SDS011;9744;49.364;7.484;2023-05-10T09:25:05;7.68;;;1.35;;
19219;SDS011;9744;49.364;7.484;2023-05-10T09:27:34;3.58;;;1.42;;
19219;SDS011;9744;49.364;7.484;2023-05-10T09:30:01;1.38;;;1.20;;
19219;SDS011;9744;49.364;7.484;2023-05-10T09:32:36;4.35;;;1.20;;
19219;SDS011;9744;49.364;7.484;2023-05-10T09:35:07;4.85;;;1.35;;
19219;SDS011;9744;49.364;7.484;2023-05-10T09:37:37;6.10;;;1.08;;
19219;SDS011;9744;49.364;7.484;2023-05-10T09:40:07;5.05;;;1.33;;
19219;SDS011;9744;49.364;7.484;2023-05-10T09:42:38;2.38;;;0.85;;
19219;SDS011;9744;49.364;7.484;2023-05-10T09:45:05;5.85;;;0.90;;
19219;SDS011;9744;49.364;7.484;2023-05-10T09:47:34;3.78;;;1.05;;
19219;SDS011;9744;49.364;7.484;2023-05-10T09:50:01;3.20;;;1.10;;
19219;SDS011;9744;49.364;7.484;2023-05-10T09:52:31;2.72;;;1.08;;
19219;SDS011;9744;49.364;7.484;2023-05-10T09:55:14;5.50;;;1.10;;
19219;SDS011;9744;49.364;7.484;2023-05-10T09:57:42;6.60;;;1.92;;
19219;SDS011;9744;49.364;7.484;2023-05-10T10:00:09;4.35;;;1.00;;
19219;SDS011;9744;49.364;7.484;2023-05-10T10:02:42;5.80;;;1.25;;
19219;SDS011;9744;49.364;7.484;2023-05-10T10:05:11;4.93;;;1.02;;
19219;SDS011;9744;49.364;7.484;2023-05-10T10:07:38;5.65;;;1.02;;
19219;SDS011;9744;49.364;7.484;2023-05-10T10:10:08;8.93;;;1.33;;
19219;SDS011;9744;49.364;7.484;2023-05-10T10:12:38;5.82;;;1.20;;
19219;SDS011;9744;49.364;7.484;2023-05-10T10:15:07;3.53;;;1.08;;
19219;SDS011;9744;49.364;7.484;2023-05-10T10:17:35;6.00;;;1.20;;
19219;SDS011;9744;49.364;7.484;2023-05-10T10:20:04;3.55;;;1.05;;
19219;SDS011;9744;49.364;7.484;2023-05-10T10:22:33;7.65;;;1.17;;
19219;SDS011;9744;49.364;7.484;2023-05-10T10:25:02;5.75;;;1.58;;
19219;SDS011;9744;49.364;7.484;2023-05-10T10:27:34;7.72;;;1.58;;
19219;SDS011;9744;49.364;7.484;2023-05-10T10:30:10;3.08;;;1.25;;
19219;SDS011;9744;49.364;7.484;2023-05-10T10:32:53;6.45;;;1.40;;
19219;SDS011;9744;49.364;7.484;2023-05-10T10:35:40;5.57;;;1.20;;
19219;SDS011;9744;49.364;7.484;2023-05-10T10:38:12;3.80;;;1.23;;
19219;SDS011;9744;49.364;7.484;2023-05-10T10:40:39;5.10;;;1.00;;
19219;SDS011;9744;49.364;7.484;2023-05-10T10:43:24;6.85;;;1.33;;
19219;SDS011;9744;49.364;7.484;2023-05-10T10:46:11;4.88;;;0.95;;
19219;SDS011;9744;49.364;7.484;2023-05-10T10:48:39;2.38;;;0.80;;
19219;SDS011;9744;49.364;7.484;2023-05-10T10:51:07;3.53;;;0.70;;
19219;SDS011;9744;49.364;7.484;2023-05-10T10:53:36;1.83;;;0.50;;
19219;SDS011;9744;49.364;7.484;2023-05-10T10:56:05;1.50;;;0.40;;
19219;SDS011;9744;49.364;7.484;2023-05-10T10:58:36;1.10;;;0.63;;
19219;SDS011;9744;49.364;7.484;2023-05-10T11:01:11;7.88;;;1.15;;
19219;SDS011;9744;49.364;7.484;2023-05-10T11:03:40;2.50;;;0.70;;
19219;SDS011;9744;49.364;7.484;2023-05-10T11:06:08;2.67;;;0.80;;
19219;SDS011;9744;49.364;7.484;2023-05-10T11:08:41;4.22;;;0.70;;
19219;SDS011;9744;49.364;7.484;2023-05-10T11:11:19;4.97;;;0.60;;
19219;SDS011;9744;49.364;7.484;2023-05-10T11:13:48;5.55;;;0.70;;
19219;SDS011;9744;49.364;7.484;2023-05-10T11:16:16;5.10;;;0.77;;
19219;SDS011;9744;49.364;7.484;2023-05-10T11:18:54;6.45;;;0.80;;
19219;SDS011;9744;49.364;7.484;2023-05-10T11:21:26;2.95;;;0.50;;
19219;SDS011;9744;49.364;7.484;2023-05-10T11:23:54;2.05;;;0.47;;
19219;SDS011;9744;49.364;7.484;2023-05-10T11:26:22;0.47;;;0.35;;
19219;SDS011;9744;49.364;7.484;2023-05-10T11:28:53;2.38;;;0.65;;
19219;SDS011;9744;49.364;7.484;2023-05-10T11:31:22;1.92;;;0.50;;
19219;SDS011;9744;49.364;7.484;2023-05-10T11:33:52;2.35;;;0.45;;
19219;SDS011;9744;49.364;7.484;2023-05-10T11:36:21;6.38;;;0.50;;
19219;SDS011;9744;49.364;7.484;2023-05-10T11:38:50;1.35;;;0.50;;
19219;SDS011;9744;49.364;7.484;2023-05-10T11:41:18;0.30;;;0.30;;
19219;SDS011;9744;49.364;7.484;2023-05-10T11:43:58;3.33;;;0.50;;
19219;SDS011;9744;49.364;7.484;2023-05-10T11:46:26;1.52;;;0.50;;
19219;SDS011;9744;49.364;7.484;2023-05-10T11:48:57;1.95;;;0.30;;
19219;SDS011;9744;49.364;7.484;2023-05-10T11:51:32;1.15;;;0.40;;
19219;SDS011;9744;49.364;7.484;2023-05-10T11:54:01;4.28;;;0.47;;
19219;SDS011;9744;49.364;7.484;2023-05-10T11:56:32;2.50;;;0.40;;
19219;SDS011;9744;49.364;7.484;2023-05-10T11:59:01;2.03;;;0.30;;
19219;SDS011;9744;49.364;7.484;2023-05-10T12:01:28;6.72;;;0.50;;
19219;SDS011;9744;49.364;7.484;2023-05-10T12:03:57;3.03;;;0.38;;
19219;SDS011;9744;49.364;7.484;2023-05-10T12:06:26;1.92;;;0.50;;
19219;SDS011;9744;49.364;7.484;2023-05-10T12:08:58;3.00;;;0.50;;
19219;SDS011;9744;49.364;7.484;2023-05-10T12:11:31;1.70;;;0.50;;
19219;SDS011;9744;49.364;7.484;2023-05-10T12:14:05;1.17;;;0.30;;
19219;SDS011;9744;49.364;7.484;2023-05-10T12:16:33;1.58;;;0.50;;
19219;SDS011;9744;49.364;7.484;2023-05-10T12:19:00;1.70;;;0.30;;
19219;SDS011;9744;49.364;7.484;2023-05-10T12:21:28;2.35;;;0.30;;
19219;SDS011;9744;49.364;7.484;2023-05-10T12:23:58;0.32;;;0.30;;
19219;SDS011;9744;49.364;7.484;2023-05-10T12:26:27;3.75;;;0.40;;
19219;SDS011;9744;49.364;7.484;2023-05-10T12:28:55;0.95;;;0.45;;
19219;SDS011;9744;49.364;7.484;2023-05-10T12:31:49;4.22;;;0.50;;
19219;SDS011;9744;49.364;7.484;2023-05-10T12:34:24;1.60;;;0.30;;
19219;SDS011;9744;49.364;7.484;2023-05-10T12:39:50;2.45;;;0.45;;
19219;SDS011;9744;49.364;7.484;2023-05-10T12:42:17;0.93;;;0.35;;
19219;SDS011;9744;49.364;7.484;2023-05-10T12:44:44;13.98;;;0.50;;
19219;SDS011;9744;49.364;7.484;2023-05-10T12:47:13;0.68;;;0.40;;
19219;SDS011;9744;49.364;7.484;2023-05-10T12:49:40;1.80;;;0.40;;
19219;SDS011;9744;49.364;7.484;2023-05-10T12:52:07;2.67;;;0.57;;
19219;SDS011;9744;49.364;7.484;2023-05-10T12:54:37;0.63;;;0.30;;
19219;SDS011;9744;49.364;7.484;2023-05-10T12:57:05;0.35;;;0.35;;
19219;SDS011;9744;49.364;7.484;2023-05-10T12:59:32;5.05;;;0.30;;
19219;SDS011;9744;49.364;7.484;2023-05-10T13:02:00;1.95;;;0.30;;
19219;SDS011;9744;49.364;7.484;2023-05-10T13:04:29;2.10;;;0.40;;
19219;SDS011;9744;49.364;7.484;2023-05-10T13:06:56;1.48;;;0.52;;
19219;SDS011;9744;49.364;7.484;2023-05-10T13:09:24;1.33;;;0.40;;
19219;SDS011;9744;49.364;7.484;2023-05-10T13:11:51;2.90;;;0.43;;
19219;SDS011;9744;49.364;7.484;2023-05-10T13:14:19;1.05;;;0.40;;
19219;SDS011;9744;49.364;7.484;2023-05-10T13:16:46;0.47;;;0.35;;
19219;SDS011;9744;49.364;7.484;2023-05-10T13:19:15;2.03;;;0.30;;
19219;SDS011;9744;49.364;7.484;2023-05-10T13:21:44;1.67;;;0.25;;
19219;SDS011;9744;49.364;7.484;2023-05-10T13:24:12;7.22;;;0.40;;
19219;SDS011;9744;49.364;7.484;2023-05-10T13:26:39;0.90;;;0.20;;
19219;SDS011;9744;49.364;7.484;2023-05-10T13:29:07;3.35;;;0.50;;
19219;SDS011;9744;49.364;7.484;2023-05-10T13:31:34;2.35;;;0.40;;
19219;SDS011;9744;49.364;7.484;2023-05-10T13:34:03;0.60;;;0.30;;
19219;SDS011;9744;49.364;7.484;2023-05-10T13:36:31;1.92;;;0.30;;
19219;SDS011;9744;49.364;7.484;2023-05-10T13:39:02;1.40;;;0.32;;
19219;SDS011;9744;49.364;7.484;2023-05-10T13:41:30;1.63;;;0.38;;
19219;SDS011;9744;49.364;7.484;2023-05-10T13:43:58;2.22;;;0.63;;
19219;SDS011;9744;49.364;7.484;2023-05-10T13:46:25;0.40;;;0.30;;
19219;SDS011;9744;49.364;7.484;2023-05-10T13:48:52;1.30;;;0.73;;
19219;SDS011;9744;49.364;7.484;2023-05-10T13:51:19;1.95;;;0.60;;
19219;SDS011;9744;49.364;7.484;2023-05-10T13:53:47;1.95;;;0.60;;
19219;SDS011;9744;49.364;7.484;2023-05-10T13:56:15;0.95;;;0.38;;
19219;SDS011;9744;49.364;7.484;2023-05-10T13:58:42;2.55;;;0.30;;
19219;SDS011;9744;49.364;7.484;2023-05-10T14:01:10;1.05;;;0.35;;
19219;SDS011;9744;49.364;7.484;2023-05-10T14:03:37;1.13;;;0.40;;
19219;SDS011;9744;49.364;7.484;2023-05-10T14:06:05;1.52;;;0.30;;
19219;SDS011;9744;49.364;7.484;2023-05-10T14:08:32;2.63;;;0.30;;
19219;SDS011;9744;49.364;7.484;2023-05-10T14:11:00;1.50;;;0.40;;
19219;SDS011;9744;49.364;7.484;2023-05-10T14:13:29;2.58;;;0.50;;
19219;SDS011;9744;49.364;7.484;2023-05-10T14:15:56;0.90;;;0.40;;
19219;SDS011;9744;49.364;7.484;2023-05-10T14:18:25;1.30;;;0.32;;
19219;SDS011;9744;49.364;7.484;2023-05-10T14:20:53;5.28;;;0.52;;
19219;SDS011;9744;49.364;7.484;2023-05-10T14:23:22;0.20;;;0.20;;
19219;SDS011;9744;49.364;7.484;2023-05-10T14:25:51;1.08;;;0.50;;
19219;SDS011;9744;49.364;7.484;2023-05-10T14:28:18;1.77;;;0.40;;
19219;SDS011;9744;49.364;7.484;2023-05-10T14:30:49;1.60;;;0.30;;
19219;SDS011;9744;49.364;7.484;2023-05-10T14:33:16;0.57;;;0.30;;
19219;SDS011;9744;49.364;7.484;2023-05-10T14:35:44;1.40;;;0.30;;
19219;SDS011;9744;49.364;7.484;2023-05-10T14:38:11;3.92;;;0.30;;
19219;SDS011;9744;49.364;7.484;2023-05-10T14:40:39;0.70;;;0.25;;
19219;SDS011;9744;49.364;7.484;2023-05-10T14:43:06;2.17;;;0.50;;
19219;SDS011;9744;49.364;7.484;2023-05-10T14:45:33;5.20;;;0.50;;
19219;SDS011;9744;49.364;7.484;2023-05-10T14:48:02;4.15;;;0.40;;
19219;SDS011;9744;49.364;7.484;2023-05-10T14:50:29;1.17;;;0.43;;
19219;SDS011;9744;49.364;7.484;2023-05-10T14:52:57;5.15;;;0.50;;
19219;SDS011;9744;49.364;7.484;2023-05-10T14:55:24;0.88;;;0.30;;
19219;SDS011;9744;49.364;7.484;2023-05-10T14:57:52;2.92;;;0.30;;
19219;SDS011;9744;49.364;7.484;2023-05-10T15:00:20;0.22;;;0.20;;
19219;SDS011;9744;49.364;7.484;2023-05-10T15:02:47;0.63;;;0.30;;
19219;SDS011;9744;49.364;7.484;2023-05-10T15:05:16;1.45;;;0.20;;
19219;SDS011;9744;49.364;7.484;2023-05-10T15:07:43;0.75;;;0.30;;
19219;SDS011;9744;49.364;7.484;2023-05-10T15:10:11;2.33;;;0.35;;
19219;SDS011;9744;49.364;7.484;2023-05-10T15:12:39;1.45;;;0.40;;
19219;SDS011;9744;49.364;7.484;2023-05-10T15:15:07;1.40;;;0.35;;